.
WxDataArchive / Data Records for 2007-04-26
2007-04-25 April 2007 2007-04-27

Data Records for Thursday, 26 April 2007

Time	Temp	Chill	HIndex	Humid	Dewpt	 Wind 	HiWind	WindDir	Rain 	Barom 
-----	----	-----	------	-----	-----	------	------	-------	-----	----- 
00:00	45.2	42.6	45.2	90	42.4	5	12	112	0.00	29.893 
00:05	45.2	41.4	45.2	90	42.4	7	13	112	0.00	29.888 
00:10	45.2	41.4	45.2	89	42.2	7	14	112	0.00	29.880 
00:15	45.2	42.0	45.2	90	42.4	6	14	112	0.00	29.881 
00:20	45.2	42.0	45.2	89	42.2	6	10	90	0.00	29.882 
00:25	45.2	42.0	45.2	89	42.2	6	12	90	0.00	29.880 
00:30	45.2	42.0	45.2	90	42.4	6	11	112	0.00	29.877 
00:35	45.2	42.6	45.2	90	42.4	5	12	112	0.00	29.876 
00:40	45.2	42.0	45.2	90	42.4	6	13	112	0.00	29.869 
00:45	45.2	41.4	45.2	90	42.4	7	13	90	0.00	29.874 
00:50	45.2	42.6	45.2	90	42.4	5	12	112	0.00	29.870 
00:55	45.2	42.6	45.2	91	42.7	5	12	90	0.00	29.863 
01:00	45.2	42.6	45.2	91	42.7	5	11	112	0.00	29.860 
01:05	45.4	42.8	45.4	91	42.9	5	11	112	0.00	29.860 
01:10	45.4	42.8	45.4	91	42.9	5	10	112	0.00	29.860 
01:15	45.4	42.8	45.4	91	42.9	5	12	90	0.00	29.858 
01:20	45.4	42.8	45.4	91	42.9	5	12	90	0.00	29.859 
01:25	45.4	43.6	45.4	91	42.9	4	10	112	0.00	29.866 
01:30	45.5	43.7	45.5	91	43.0	4	12	112	0.00	29.861 
01:35	45.5	42.9	45.5	92	43.3	5	11	90	0.00	29.860 
01:40	45.4	42.2	45.4	92	43.2	6	14	90	0.00	29.858 
01:45	45.4	42.8	45.4	92	43.2	5	11	90	0.00	29.857 
01:50	45.4	42.8	45.4	92	43.2	5	10	112	0.00	29.846 
01:55	45.4	42.8	45.4	93	43.5	5	10	112	0.00	29.846 
02:00	45.2	42.6	45.2	93	43.3	5	10	112	0.00	29.845 
02:05	45.2	42.0	45.2	93	43.3	6	12	90	0.00	29.842 
02:10	45.2	42.6	45.2	94	43.6	5	12	90	0.00	29.835 
02:15	45.2	42.0	45.2	94	43.6	6	12	112	0.00	29.833 
02:20	45.2	42.6	45.2	94	43.6	5	13	90	0.00	29.832 
02:25	45.2	42.6	45.2	94	43.6	5	12	90	0.00	29.828 
02:30	45.2	42.0	45.2	94	43.6	6	11	112	0.00	29.829 
02:35	45.2	43.3	45.2	94	43.6	4	9	112	0.00	29.826 
02:40	45.2	42.6	45.2	94	43.6	5	12	112	0.00	29.828 
02:45	45.2	43.3	45.2	94	43.6	4	9	112	0.00	29.827 
02:50	45.2	42.6	45.2	94	43.6	5	10	112	0.00	29.826 
02:55	45.2	42.6	45.2	94	43.6	5	12	90	0.00	29.826 
03:00	45.2	45.2	45.2	94	43.6	3	8	112	0.00	29.827 
03:05	45.2	43.3	45.2	94	43.6	4	10	90	0.00	29.829 
03:10	45.4	43.6	45.4	94	43.8	4	8	112	0.00	29.829 
03:15	45.4	43.6	45.4	94	43.8	4	10	90	0.00	29.825 
03:20	45.4	42.8	45.4	94	43.8	5	9	112	0.00	29.819 
03:25	45.4	43.6	45.4	94	43.8	4	7	112	0.00	29.816 
03:30	45.4	43.6	45.4	94	43.8	4	8	90	0.00	29.819 
03:35	45.4	42.8	45.4	94	43.8	5	12	112	0.00	29.820 
03:40	45.4	45.4	45.4	94	43.8	3	7	90	0.00	29.818 
03:45	45.5	43.7	45.5	94	43.9	4	10	112	0.00	29.816 
03:50	45.5	43.7	45.5	95	44.2	4	7	90	0.00	29.816 
03:55	45.5	43.7	45.5	95	44.2	4	7	112	0.00	29.815 
04:00	45.5	43.7	45.5	95	44.2	4	8	90	0.00	29.813 
04:05	45.7	43.2	45.7	95	44.4	5	12	90	0.00	29.811 
04:10	45.7	45.7	45.7	95	44.4	3	7	90	0.00	29.813 
04:15	45.7	43.9	45.7	95	44.4	4	6	90	0.00	29.811 
04:20	45.7	43.2	45.7	95	44.4	5	9	90	0.00	29.805 
04:25	45.8	44.0	45.8	95	44.4	4	9	90	0.00	29.803 
04:30	45.8	44.0	45.8	95	44.4	4	6	112	0.00	29.803 
04:35	45.8	44.0	45.8	95	44.4	4	7	112	0.00	29.798 
04:40	45.8	44.0	45.8	95	44.4	4	7	112	0.00	29.806 
04:45	45.8	44.0	45.8	95	44.4	4	9	90	0.00	29.804 
04:50	45.8	44.0	45.8	95	44.4	4	10	112	0.00	29.800 
04:55	46.0	46.0	46.0	96	44.9	3	7	112	0.00	29.803 
05:00	46.0	44.2	46.0	96	44.9	4	10	112	0.00	29.801 
05:05	46.0	44.2	46.0	96	44.9	4	8	90	0.00	29.801 
05:10	46.0	46.0	46.0	96	44.9	3	7	112	0.00	29.799 
05:15	46.1	46.1	46.1	96	45.0	3	6	90	0.00	29.798 
05:20	46.1	46.1	46.1	96	45.0	3	7	112	0.01	29.791 
05:25	46.0	44.2	46.0	96	44.9	4	6	90	0.00	29.790 
05:30	46.0	44.2	46.0	96	44.9	4	10	112	0.01	29.786 
05:35	46.0	44.2	46.0	96	44.9	4	9	112	0.00	29.782 
05:40	46.1	43.0	46.1	97	45.3	6	10	90	0.00	29.780 
05:45	46.1	43.6	46.1	97	45.3	5	10	112	0.00	29.776 
05:50	46.1	44.4	46.1	97	45.3	4	9	112	0.00	29.780 
05:55	46.1	46.1	46.1	97	45.3	3	6	90	0.01	29.782 
06:00	46.2	44.5	46.2	97	45.4	4	7	90	0.00	29.781 
06:05	46.2	44.5	46.2	97	45.4	4	7	90	0.00	29.780 
06:10	46.2	46.2	46.2	97	45.4	3	7	112	0.01	29.778 
06:15	46.2	44.5	46.2	97	45.4	4	10	90	0.01	29.779 
06:20	46.4	44.7	46.4	97	45.6	4	9	112	0.01	29.774 
06:25	46.4	44.7	46.4	97	45.6	4	12	112	0.01	29.779 
06:30	46.4	44.0	46.4	97	45.6	5	10	112	0.00	29.778 
06:35	46.5	44.8	46.5	97	45.7	4	7	90	0.00	29.779 
06:40	46.5	44.8	46.5	97	45.7	4	10	112	0.01	29.778 
06:45	46.5	44.8	46.5	97	45.7	4	7	90	0.01	29.780 
06:50	46.5	46.5	46.5	97	45.7	3	7	90	0.00	29.780 
06:55	46.7	46.7	46.7	98	46.2	1	5	135	0.00	29.783 
07:00	46.7	46.7	46.7	98	46.2	3	6	112	0.01	29.779 
07:05	46.8	46.8	46.8	98	46.3	3	6	112	0.00	29.793 
07:10	46.8	46.8	46.8	98	46.3	3	6	112	0.02	29.793 
07:15	46.8	46.8	46.8	98	46.3	3	5	90	0.01	29.785 
07:20	47.0	47.0	47.0	98	46.5	3	7	90	0.01	29.777 
07:25	47.0	45.4	47.0	98	46.5	4	6	90	0.00	29.772 
07:30	47.1	47.1	47.1	98	46.6	3	5	112	0.00	29.768 
07:35	47.1	47.1	47.1	98	46.6	3	8	90	0.01	29.756 
07:40	47.1	47.1	47.1	98	46.6	2	6	112	0.01	29.752 
07:45	47.3	47.3	47.3	98	46.8	3	9	90	0.00	29.755 
07:50	47.3	47.3	47.3	98	46.8	3	6	112	0.00	29.752 
07:55	47.3	47.3	47.3	98	46.8	3	7	112	0.00	29.750 
08:00	47.4	47.4	47.4	98	46.9	3	7	90	0.01	29.751 
08:05	47.4	45.9	47.4	98	46.9	4	7	112	0.00	29.750 
08:10	47.6	46.1	47.6	98	47.1	4	7	90	0.00	29.746 
08:15	47.6	47.6	47.6	98	47.1	3	7	112	0.00	29.738 
08:20	47.7	46.2	47.7	98	47.2	4	10	112	0.00	29.736 
08:25	47.9	47.9	47.9	98	47.4	3	6	112	0.01	29.740 
08:30	48.0	48.0	48.0	98	47.5	3	7	112	0.00	29.747 
08:35	48.2	48.2	48.2	98	47.7	3	7	90	0.00	29.751 
08:40	48.2	46.8	48.2	98	47.7	4	9	90	0.01	29.745 
08:45	48.3	46.9	48.3	98	47.8	4	9	112	0.01	29.737 
08:50	48.3	48.3	48.3	98	47.8	3	5	112	0.00	29.739 
08:55	48.5	47.1	48.5	98	48.0	4	9	90	0.01	29.738 
09:00	48.5	48.5	48.5	98	48.0	3	6	112	0.01	29.740 
09:05	48.6	48.6	48.6	98	48.1	3	6	90	0.00	29.742 
09:10	48.6	48.6	48.6	98	48.1	2	5	90	0.01	29.747 
09:15	48.8	48.8	48.8	98	48.3	1	3	112	0.00	29.748 
09:20	48.8	48.8	48.8	98	48.3	1	3	112	0.03	29.749 
09:25	48.9	48.9	48.9	98	48.4	3	6	112	0.05	29.736 
09:30	48.9	48.9	48.9	98	48.4	2	5	112	0.03	29.735 
09:35	49.1	49.1	49.1	98	48.6	2	5	90	0.01	29.732 
09:40	49.1	49.1	49.1	98	48.6	1	4	112	0.01	29.734 
09:45	49.2	49.2	49.2	98	48.7	2	3	90	0.01	29.737 
09:50	49.4	49.4	49.4	98	48.9	2	4	90	0.00	29.733 
09:55	49.4	49.4	49.4	98	48.9	2	4	90	0.00	29.733 
10:00	49.6	49.6	49.6	98	49.1	2	5	90	0.00	29.730 
10:05	49.8	49.8	49.8	98	49.3	1	4	90	0.00	29.734 
10:10	49.9	49.9	49.9	98	49.4	2	4	90	0.00	29.735 
10:15	49.9	49.9	49.9	98	49.4	2	6	112	0.00	29.733 
10:20	50.2	50.2	50.2	98	49.7	2	4	112	0.00	29.732 
10:25	50.2	50.2	50.2	98	49.7	2	3	112	0.00	29.732 
10:30	50.4	50.4	50.4	98	49.9	2	4	135	0.00	29.730 
10:35	50.7	50.7	50.7	98	50.2	2	5	112	0.00	29.726 
10:40	50.8	50.8	50.8	98	50.3	2	6	90	0.00	29.730 
10:45	51.0	51.0	51.0	98	50.5	2	6	90	0.00	29.727 
10:50	51.0	51.0	51.0	98	50.5	2	4	112	0.00	29.729 
10:55	51.3	51.3	51.3	98	50.8	1	3	112	0.00	29.729 
11:00	52.2	52.2	52.2	98	51.7	2	3	112	0.00	29.725 
11:05	52.5	52.5	52.5	98	52.0	3	5	112	0.00	29.717 
11:10	52.8	52.8	52.8	100	52.8	2	5	112	0.00	29.714 
11:15	53.1	53.1	53.1	98	52.5	3	6	90	0.00	29.712 
11:20	53.5	53.5	53.5	98	52.9	3	6	90	0.00	29.711 
11:25	53.9	53.9	53.9	98	53.3	1	3	90	0.00	29.712 
11:30	54.4	54.4	54.4	98	53.8	2	5	90	0.00	29.708 
11:35	54.8	54.8	54.8	98	54.2	1	4	68	0.00	29.701 
11:40	55.1	55.1	55.1	98	54.5	2	5	90	0.00	29.700 
11:45	55.4	55.4	55.4	98	54.8	2	4	90	0.00	29.699 
11:50	55.9	55.9	55.9	98	55.3	2	5	90	0.00	29.697 
11:55	56.2	56.2	56.2	98	55.6	2	4	90	0.00	29.696 
12:00	56.9	56.9	56.9	98	56.3	2	4	112	0.00	29.694 
12:05	57.2	57.2	57.2	98	56.6	2	4	112	0.00	29.692 
12:10	57.6	57.6	57.6	97	56.8	1	3	112	0.00	29.686 
12:15	58.4	58.4	58.4	97	57.5	1	4	112	0.00	29.682 
12:20	59.2	59.2	59.2	96	58.1	1	4	112	0.00	29.675 
12:25	60.1	60.1	60.1	95	58.7	1	4	112	0.00	29.672 
12:30	60.5	60.5	60.5	93	58.5	1	3	112	0.00	29.666 
12:35	61.0	61.0	61.0	92	58.7	1	3	112	0.00	29.659 
12:40	61.5	61.5	61.5	91	58.8	1	3	112	0.00	29.661 
12:45	62.0	62.0	62.0	90	59.0	1	4	112	0.00	29.660 
12:50	62.4	62.4	62.4	89	59.1	1	4	112	0.00	29.658 
12:55	62.6	62.6	62.6	88	59.0	2	4	112	0.00	29.656 
13:00	62.9	62.9	62.9	86	58.6	2	5	112	0.00	29.655 
13:05	63.7	63.7	63.7	87	59.8	2	4	90	0.00	29.649 
13:10	63.9	63.9	63.9	86	59.6	2	4	90	0.00	29.652 
13:15	64.3	64.3	64.3	86	60.0	1	4	90	0.00	29.652 
13:20	64.5	64.5	64.5	85	59.9	1	3	112	0.00	29.647 
13:25	64.7	64.7	64.7	84	59.7	1	3	90	0.00	29.643 
13:30	64.5	64.5	64.5	85	59.9	2	4	90	0.00	29.639 
13:35	64.5	64.5	64.5	84	59.6	1	2	90	0.00	29.639 
13:40	64.3	64.3	64.3	85	59.7	1	3	90	0.00	29.639 
13:45	64.2	64.2	64.2	86	59.9	0	2	90	0.00	29.638 
13:50	63.9	63.9	63.9	86	59.6	1	3	90	0.00	29.639 
13:55	63.5	63.5	63.5	87	59.6	1	4	90	0.00	29.638 
14:00	63.2	63.2	63.2	88	59.6	0	3	90	0.00	29.645 
14:05	63.1	63.1	63.1	89	59.8	0	1	90	0.00	29.642 
14:10	62.9	62.9	62.9	90	59.9	0	1	90	0.01	29.642 
14:15	62.7	62.7	62.7	91	60.0	0	2	90	0.00	29.641 
14:20	62.6	62.6	62.6	92	60.2	0	1	90	0.00	29.642 
14:25	62.6	62.6	62.6	92	60.2	0	2	90	0.01	29.639 
14:30	62.4	62.4	62.4	92	60.0	0	2	90	0.01	29.638 
14:35	62.4	62.4	62.4	93	60.3	0	1	90	0.01	29.635 
14:40	62.4	62.4	62.4	94	60.6	0	1	90	0.01	29.634 
14:45	62.4	62.4	62.4	94	60.6	1	3	90	0.01	29.639 
14:50	62.3	62.3	62.3	94	60.5	1	3	248	0.02	29.641 
14:55	62.1	62.1	62.1	93	60.0	3	10	270	0.01	29.640 
15:00	61.6	61.6	61.6	92	59.2	3	9	248	0.01	29.634 
15:05	61.5	61.5	61.5	92	59.2	1	9	270	0.01	29.624 
15:10	61.5	61.5	61.5	92	59.2	1	4	45	0.00	29.624 
15:15	61.5	61.5	61.5	92	59.2	1	4	90	0.00	29.611 
15:20	61.6	61.6	61.6	92	59.2	0	2	90	0.00	29.607 
15:25	62.4	62.4	62.4	93	60.3	1	3	90	0.01	29.608 
15:30	62.4	62.4	62.4	91	59.7	0	2	90	0.00	29.606 
15:35	62.6	62.6	62.6	89	59.3	1	3	22	0.00	29.597 
15:40	62.4	62.4	62.4	86	58.2	1	3	112	0.00	29.593 
15:45	62.7	62.7	62.7	85	58.1	1	3	112	0.00	29.592 
15:50	63.2	63.2	63.2	85	58.6	1	2	112	0.00	29.593 
15:55	63.5	63.5	63.5	82	57.9	2	4	112	0.00	29.590 
16:00	63.7	63.7	63.7	81	57.8	1	2	90	0.00	29.591 
16:05	63.9	63.9	63.9	80	57.6	1	5	90	0.00	29.591 
16:10	64.0	64.0	64.0	78	57.0	2	4	90	0.00	29.592 
16:15	64.0	64.0	64.0	77	56.6	1	4	90	0.00	29.593 
16:20	64.2	64.2	64.2	76	56.5	1	3	90	0.00	29.598 
16:25	64.3	64.3	64.3	77	56.9	1	3	68	0.00	29.592 
16:30	64.8	64.8	64.8	74	56.3	1	3	68	0.00	29.592 
16:35	65.3	65.3	65.3	72	56.0	2	3	68	0.00	29.594 
16:40	65.3	65.3	65.3	73	56.4	0	3	68	0.00	29.593 
16:45	65.3	65.3	65.3	74	56.8	0	2	68	0.00	29.596 
16:50	65.3	65.3	65.3	72	56.0	1	3	112	0.00	29.595 
16:55	65.2	65.2	65.2	73	56.3	1	2	112	0.00	29.594 
17:00	65.2	65.2	65.2	74	56.7	1	4	112	0.00	29.598 
17:05	65.0	65.0	65.0	74	56.5	1	3	112	0.00	29.597 
17:10	64.8	64.8	64.8	76	57.0	0	2	112	0.00	29.605 
17:15	64.3	64.3	64.3	78	57.3	0	1	112	0.01	29.604 
17:20	63.9	63.9	63.9	81	57.9	0	1	112	0.01	29.601 
17:25	63.1	63.1	63.1	78	56.1	1	5	270	0.00	29.605 
17:30	62.6	62.6	62.6	80	56.3	1	4	270	0.00	29.595 
17:35	62.4	62.4	62.4	82	56.8	0	2	112	0.00	29.593 
17:40	62.3	62.3	62.3	82	56.7	0	2	112	0.00	29.592 
17:45	62.3	62.3	62.3	82	56.7	1	2	112	0.00	29.591 
17:50	62.4	62.4	62.4	83	57.2	0	2	135	0.00	29.586 
17:55	62.4	62.4	62.4	83	57.2	1	4	135	0.00	29.577 
18:00	62.6	62.6	62.6	82	57.0	2	5	135	0.00	29.574 
18:05	62.6	62.6	62.6	80	56.3	3	7	112	0.00	29.574 
18:10	62.4	62.4	62.4	81	56.5	4	11	90	0.00	29.575 
18:15	62.0	62.0	62.0	83	56.8	4	9	112	0.00	29.574 
18:20	61.5	61.5	61.5	85	56.9	4	10	112	0.01	29.569 
18:25	61.0	61.0	61.0	86	56.8	3	7	112	0.00	29.567 
18:30	60.5	60.5	60.5	87	56.6	2	5	112	0.00	29.569 
18:35	60.2	60.2	60.2	88	56.6	2	5	112	0.00	29.574 
18:40	59.9	59.9	59.9	88	56.3	1	3	135	0.00	29.580 
18:45	59.8	59.8	59.8	89	56.5	1	4	270	0.00	29.581 
18:50	59.6	59.6	59.6	89	56.4	1	4	112	0.00	29.580 
18:55	59.5	59.5	59.5	89	56.3	0	2	112	0.00	29.580 
19:00	59.3	59.3	59.3	89	56.1	0	2	112	0.00	29.583 
19:05	59.0	59.0	59.0	89	55.8	0	1	112	0.00	29.585 
19:10	58.9	58.9	58.9	90	56.0	0	0	---	0.00	29.585 
19:15	58.6	58.6	58.6	90	55.7	0	0	---	0.00	29.587 
19:20	58.4	58.4	58.4	91	55.8	0	0	---	0.00	29.589 
19:25	58.3	58.3	58.3	91	55.7	0	0	---	0.00	29.589 
19:30	58.3	58.3	58.3	92	56.0	0	1	112	0.00	29.594 
19:35	58.4	58.4	58.4	92	56.1	1	3	180	0.00	29.605 
19:40	58.4	58.4	58.4	92	56.1	1	4	248	0.00	29.608 
19:45	58.7	58.7	58.7	92	56.4	2	6	248	0.00	29.602 
19:50	58.7	58.7	58.7	91	56.1	1	4	248	0.00	29.599 
19:55	58.7	58.7	58.7	90	55.8	1	6	248	0.00	29.598 
20:00	58.6	58.6	58.6	88	55.1	1	4	225	0.01	29.597 
20:05	58.4	58.4	58.4	89	55.2	0	2	225	0.00	29.598 
20:10	58.0	58.0	58.0	88	54.5	0	2	225	0.01	29.596 
20:15	57.6	57.6	57.6	89	54.4	0	1	225	0.00	29.596 
20:20	57.5	57.5	57.5	89	54.3	0	1	225	0.00	29.597 
20:25	57.3	57.3	57.3	90	54.4	0	1	225	0.00	29.597 
20:30	57.2	57.2	57.2	90	54.3	0	1	225	0.00	29.597 
20:35	57.0	57.0	57.0	90	54.1	0	2	180	0.00	29.601 
20:40	57.0	57.0	57.0	90	54.1	0	2	180	0.00	29.609 
20:45	57.0	57.0	57.0	90	54.1	0	0	---	0.00	29.609 
20:50	56.7	56.7	56.7	91	54.1	0	0	---	0.00	29.607 
20:55	56.6	56.6	56.6	91	54.0	0	0	---	0.00	29.605 
21:00	56.6	56.6	56.6	92	54.3	0	0	---	0.00	29.606 
21:05	56.6	56.6	56.6	93	54.6	0	1	180	0.00	29.607 
21:10	56.7	56.7	56.7	94	55.0	0	1	180	0.00	29.604 
21:15	56.9	56.9	56.9	94	55.2	0	0	---	0.00	29.609 
21:20	56.9	56.9	56.9	94	55.2	0	0	---	0.00	29.606 
21:25	56.7	56.7	56.7	94	55.0	0	0	---	0.00	29.603 
21:30	56.7	56.7	56.7	95	55.3	0	0	---	0.00	29.606 
21:35	56.6	56.6	56.6	95	55.2	0	0	---	0.00	29.603 
21:40	56.6	56.6	56.6	95	55.2	0	1	180	0.00	29.599 
21:45	56.5	56.5	56.5	95	55.1	0	1	180	0.00	29.598 
21:50	56.3	56.3	56.3	95	54.9	0	3	112	0.00	29.598 
21:55	56.2	56.2	56.2	94	54.5	0	1	112	0.00	29.599 
22:00	56.0	56.0	56.0	94	54.3	0	1	112	0.00	29.598 
22:05	55.9	55.9	55.9	93	53.9	0	1	112	0.00	29.599 
22:10	55.6	55.6	55.6	93	53.6	0	3	112	0.00	29.606 
22:15	55.6	55.6	55.6	93	53.6	1	3	270	0.00	29.605 
22:20	55.4	55.4	55.4	93	53.4	0	3	270	0.00	29.602 
22:25	55.3	55.3	55.3	93	53.3	0	2	270	0.00	29.600 
22:30	55.3	55.3	55.3	93	53.3	0	2	270	0.00	29.597 
22:35	55.3	55.3	55.3	93	53.3	0	1	270	0.00	29.596 
22:40	55.1	55.1	55.1	93	53.1	0	2	270	0.00	29.595 
22:45	55.1	55.1	55.1	93	53.1	0	2	270	0.00	29.594 
22:50	55.0	55.0	55.0	93	53.0	0	2	270	0.00	29.595 
22:55	55.0	55.0	55.0	93	53.0	0	1	270	0.00	29.593 
23:00	54.8	54.8	54.8	93	52.8	0	1	270	0.00	29.589 
23:05	54.8	54.8	54.8	93	52.8	0	1	270	0.00	29.584 
23:10	54.7	54.7	54.7	93	52.7	0	1	270	0.00	29.586 
23:15	54.5	54.5	54.5	93	52.5	0	1	270	0.00	29.586 
23:20	54.5	54.5	54.5	94	52.8	0	2	270	0.00	29.584 
23:25	54.5	54.5	54.5	94	52.8	1	3	270	0.00	29.586 
23:30	54.5	54.5	54.5	94	52.8	1	3	270	0.00	29.586 
23:35	54.5	54.5	54.5	94	52.8	0	1	248	0.00	29.587 
23:40	54.4	54.4	54.4	94	52.7	0	2	248	0.00	29.591 
23:45	54.4	54.4	54.4	94	52.7	1	4	248	0.00	29.591 
23:50	54.4	54.4	54.4	94	52.7	1	2	248	0.00	29.591 
23:55	54.4	54.4	54.4	94	52.7	1	4	248	0.00	29.592 

CoCoRaHS
IN-AL-39
A2 Web Hosting
Creative Commons License
GoDaddy
Look for:

loaded 2017-12-10 21:32:34 • last modified 2010-11-18 10:43:29
Privacy PolicyDisclaimer
• wx.awcolley.com is powered by PmWiki v.2002016 •
• all content (unless otherwise noted) © 2017 A W Colley